Labuan Airport Labuan MY
ICAO: WBKL
IATA:
Category: Medium
Scheduled Services:

Elevation: 101 ft
TransAlt. 11000 ft.

Airport Communications:
APP:119.7
ATIS:126.85
GND:118.35
TWR:118.1

WBKL Zoom In..

If you have problems with the map follow the link
https://www.worldairports.se/pages/airport.php?
ICAO=WBKL

Runways:

(A) RW 14 length 9006 ft width 148 ft
ILS 111.10 / hdg 145

(B) RW 32 length 9006 ft width 148 ft
---- / hdg 325

Location; WBKL
Day. 05 / Time. 15.00 Zulu
* QNH: 1011
* Temperature: 27° c. 80.6°f.
* Wind from: VRB° Speed 02 kn.
Dewpoint: 24° c.
Visibility: 10 km or more.
Clouds: Few 1500 ft.
Clouds: Scattered 4000 ft.
Clouds: Broken 29000 ft.

WBKL 051500Z VRB02KT 9999 FEW015 SCT040 BKN290 27/24 Q1011


Wind From VRB°
Speed 02 kn.

 
 
jpsmedia worldairports.se 2019   terms of use